Time;durP1;ratioP1;P1;durP2;ratioP2;P2;SDS_P1;SDS_P2;PMS_P1;PMS_P2;Temp;Humidity;BMP_temperature;BMP_pressure;BME280_temperature;BME280_humidity;BME280_pressure;Samples;Min_cycle;Max_cycle;Signal;HPM_P1;HPM_P2
2021/12/24 00:01:43;;;;;;;5.13;4.50;;;12.50;61.50;;;-142.21;100.00;112049.66;5075747;28;20490;-80
2021/12/24 00:04:10;;;;;;;6.40;5.37;;;12.50;61.50;;;-142.21;100.00;112049.66;5075140;28;20450;-78
2021/12/24 00:06:38;;;;;;;6.13;4.60;;;12.60;61.40;;;-142.21;100.00;112049.66;5075448;28;20443;-78
2021/12/24 00:09:07;;;;;;;6.13;4.40;;;12.60;61.30;;;-142.21;100.00;112049.66;5075016;28;20447;-79
2021/12/24 00:11:36;;;;;;;6.00;4.80;;;12.70;61.30;;;-142.21;100.00;112049.66;5074499;28;20927;-78
2021/12/24 00:14:06;;;;;;;5.17;4.27;;;12.70;61.30;;;-142.21;99.51;112049.66;5074663;28;20452;-77
2021/12/24 00:16:40;;;;;;;5.10;4.07;;;12.70;61.00;;;-142.21;99.54;112049.66;5075936;28;20550;-78
2021/12/24 00:19:20;;;;;;;4.43;4.03;;;12.80;60.80;;;-142.21;99.88;112049.66;5075697;28;20447;-78
2021/12/24 00:22:22;;;;;;;5.03;3.87;;;12.80;60.70;;;-142.21;100.00;112049.66;5075465;28;20463;-79
2021/12/24 00:35:51;;;;;;;4.33;3.90;;;13.00;60.40;;;-142.21;99.33;112049.66;5094206;28;20508;-78
2021/12/24 00:38:18;;;;;;;4.77;3.93;;;13.00;60.50;;;-142.21;98.73;112049.66;5116069;28;20450;-78
2021/12/24 00:40:49;;;;;;;6.33;5.47;;;13.10;60.20;;;-142.21;98.50;112049.66;5115066;28;20533;-77
2021/12/24 00:43:21;;;;;;;5.90;5.30;;;13.10;60.00;;;-142.21;98.16;112049.66;5115285;28;20493;-78
2021/12/24 00:45:51;;;;;;;4.73;3.93;;;13.10;59.90;;;-142.21;98.01;112049.66;5117064;28;20936;-78
2021/12/24 00:48:22;;;;;;;4.30;3.67;;;13.20;59.80;;;-142.21;97.85;112049.66;5114589;27;20465;-78
2021/12/24 00:50:57;;;;;;;4.47;3.60;;;13.20;60.50;;;-142.21;97.82;112049.66;5113483;28;20499;-78
2021/12/24 00:56:14;;;;;;;5.00;3.77;;;13.20;59.70;;;-142.21;96.82;112049.66;5114802;28;20543;-78
2021/12/24 00:58:42;;;;;;;7.10;4.23;;;13.20;59.70;;;-142.21;97.10;112049.66;5112891;28;20426;-78
2021/12/24 01:01:14;;;;;;;5.90;4.50;;;13.20;59.50;;;-142.21;97.41;112049.66;5113579;28;20481;-79
2021/12/24 01:03:44;;;;;;;5.90;3.80;;;13.20;59.40;;;-142.21;96.59;112049.66;5096626;28;20438;-75
2021/12/24 01:06:11;;;;;;;4.70;3.90;;;13.10;59.10;;;-142.21;96.13;112049.66;5115662;28;20442;-78
2021/12/24 01:08:38;;;;;;;5.73;4.03;;;13.20;59.40;;;-142.21;96.25;112049.66;5114644;28;20442;-79
2021/12/24 01:11:09;;;;;;;6.33;4.53;;;13.10;59.20;;;-142.21;96.13;112049.66;5113162;28;20853;-79
2021/12/24 01:13:37;;;;;;;5.03;4.20;;;13.10;59.40;;;-142.21;96.02;112049.66;5114396;28;20422;-78
2021/12/24 01:16:13;;;;;;;5.37;4.27;;;13.10;59.20;;;-142.21;96.35;112049.66;5112969;28;20538;-79
2021/12/24 01:18:57;;;;;;;6.07;4.80;;;13.10;59.10;;;-142.21;96.37;112049.66;5113551;28;20465;-78
2021/12/24 01:21:38;;;;;;;5.57;4.40;;;13.10;59.00;;;-142.21;96.66;112049.66;5113513;28;20476;-79
2021/12/24 01:24:14;;;;;;;5.57;4.90;;;13.10;58.70;;;-142.21;96.80;112049.66;5113141;28;20471;-79
2021/12/24 01:26:48;;;;;;;5.53;4.90;;;13.10;58.90;;;-142.21;96.54;112049.66;5112728;28;20471;-78
2021/12/24 01:29:39;;;;;;;4.70;4.20;;;13.00;58.60;;;-142.21;96.37;112049.66;5114006;28;20461;-78
2021/12/24 01:40:40;;;;;;;5.80;4.83;;;12.90;58.70;;;-142.21;96.16;112049.66;5081264;28;20463;-78
2021/12/24 01:43:08;;;;;;;5.20;4.70;;;12.90;58.90;;;-142.21;96.76;112049.66;5092157;28;20477;-77
2021/12/24 01:45:37;;;;;;;6.00;5.07;;;12.90;59.00;;;-142.21;96.81;112049.66;5093061;28;21039;-77
2021/12/24 01:48:09;;;;;;;5.50;4.57;;;12.90;58.80;;;-142.21;96.87;112049.66;5106233;28;20888;-77
2021/12/24 01:50:42;;;;;;;5.73;4.77;;;12.80;58.90;;;-142.21;96.93;112049.66;5112829;28;20500;-78
2021/12/24 01:53:10;;;;;;;6.03;4.67;;;12.80;59.00;;;-142.21;96.20;112049.66;5112816;28;20468;-78
2021/12/24 01:55:39;;;;;;;7.60;5.07;;;12.80;59.00;;;-142.21;96.69;112049.66;5113142;28;20585;-76
2021/12/24 01:58:07;;;;;;;5.63;5.00;;;12.80;59.10;;;-142.21;96.66;112049.66;5111457;28;21229;-77
2021/12/24 02:00:40;;;;;;;5.97;5.13;;;12.80;59.10;;;-142.21;96.71;112049.66;5112559;28;20441;-76
2021/12/24 02:03:11;;;;;;;5.37;4.83;;;12.80;59.10;;;-142.21;96.25;112049.66;5112817;28;20497;-77
2021/12/24 02:05:42;;;;;;;5.70;4.93;;;12.80;59.20;;;-142.21;96.45;112049.66;5112132;28;20545;-77
2021/12/24 02:08:11;;;;;;;5.80;5.20;;;12.80;59.10;;;-142.21;97.10;112049.66;5112691;28;20473;-76
2021/12/24 02:10:39;;;;;;;6.10;4.90;;;12.80;59.20;;;-142.21;97.14;112049.66;5111663;28;20490;-77
2021/12/24 02:13:07;;;;;;;5.83;4.87;;;12.80;59.10;;;-142.21;96.88;112049.66;5112731;28;20529;-78
2021/12/24 02:15:45;;;;;;;6.70;4.70;;;12.90;59.00;;;-142.21;97.05;112049.66;5111859;28;20473;-78
2021/12/24 02:18:45;;;;;;;5.37;4.80;;;12.90;59.70;;;-142.21;97.79;112049.66;5113442;28;20460;-77
2021/12/24 02:29:31;;;;;;;4.57;4.00;;;12.90;58.90;;;-142.21;97.49;112049.66;5095846;28;20441;-78
2021/12/24 02:31:58;;;;;;;5.10;4.50;;;12.90;59.00;;;-142.21;97.26;112049.66;5115532;28;20475;-78
2021/12/24 02:34:25;;;;;;;5.60;4.90;;;13.00;59.00;;;-142.21;97.85;112049.66;5115708;28;20569;-78
2021/12/24 02:36:54;;;;;;;4.53;4.13;;;13.00;59.00;;;-142.21;97.91;112049.66;5116688;28;20469;-77
2021/12/24 02:39:21;;;;;;;5.17;4.53;;;13.10;58.80;;;-142.21;97.01;112049.66;5115341;28;20465;-77
2021/12/24 02:41:49;;;;;;;4.67;4.27;;;13.10;58.80;;;-142.21;97.16;112049.66;5112398;28;21020;-77
2021/12/24 02:44:16;;;;;;;5.70;4.80;;;13.00;58.80;;;-142.21;96.80;112049.66;5116201;28;20469;-78
2021/12/24 02:47:06;;;;;;;4.50;4.10;;;13.10;58.80;;;-142.21;96.81;112049.66;5116105;28;20469;-76
2021/12/24 02:55:07;;;;;;;4.30;3.90;;;13.00;59.10;;;-142.21;97.09;112049.66;5100536;28;20946;-75
2021/12/24 02:57:37;;;;;;;5.20;4.50;;;13.00;59.10;;;-142.21;97.04;112049.66;5116054;27;20477;-75
2021/12/24 03:00:14;;;;;;;4.73;4.33;;;13.00;59.10;;;-142.21;97.17;112049.66;5114227;28;20458;-76
2021/12/24 03:02:44;;;;;;;5.90;4.07;;;13.00;59.10;;;-142.21;97.37;112049.66;5118291;27;20464;-74
2021/12/24 03:05:13;;;;;;;5.97;4.33;;;13.00;59.00;;;-142.21;97.66;112049.66;5115429;28;21024;-76
2021/12/24 03:07:43;;;;;;;5.40;4.90;;;13.00;59.10;;;-142.21;97.77;112049.66;5095560;28;20438;-75
2021/12/24 03:10:15;;;;;;;5.33;4.10;;;12.90;59.10;;;-142.21;97.96;112049.66;5098191;28;20515;-77
2021/12/24 03:12:45;;;;;;;6.17;4.23;;;12.90;59.20;;;-142.21;97.99;112049.66;5115608;28;20505;-74
2021/12/24 03:15:17;;;;;;;5.07;4.57;;;12.90;59.50;;;-142.21;98.07;112049.66;5114367;28;20441;-76
2021/12/24 03:17:50;;;;;;;6.07;4.33;;;12.90;59.70;;;-142.21;97.46;112049.66;5114955;28;20579;-74
2021/12/24 03:20:19;;;;;;;4.43;4.03;;;12.90;59.30;;;-142.21;98.06;112049.66;5115409;28;20473;-74
2021/12/24 03:23:03;;;;;;;5.60;4.80;;;13.00;59.40;;;-142.21;97.87;112049.66;5114680;28;20465;-75
2021/12/24 03:25:31;;;;;;;5.87;4.47;;;12.90;59.20;;;-142.21;98.46;112049.66;5115174;28;20453;-75
2021/12/24 03:27:59;;;;;;;5.20;4.47;;;12.90;59.50;;;-142.21;98.45;112049.66;5113962;28;20461;-78
2021/12/24 03:30:32;;;;;;;6.20;4.30;;;12.90;59.40;;;-142.21;98.87;112049.66;5115032;28;20496;-75
2021/12/24 03:33:00;;;;;;;4.93;4.53;;;12.90;59.70;;;-142.21;98.54;112049.66;5112732;28;20465;-74
2021/12/24 03:35:28;;;;;;;5.70;4.83;;;12.80;59.50;;;-142.21;98.96;112049.66;5114796;28;20480;-74
2021/12/24 03:37:57;;;;;;;6.63;4.77;;;12.90;59.60;;;-142.21;99.39;112049.66;5112766;28;20495;-74
2021/12/24 03:40:25;;;;;;;5.20;4.70;;;12.90;59.70;;;-142.21;99.27;112049.66;5114143;28;20449;-74
2021/12/24 03:42:53;;;;;;;5.70;4.80;;;12.90;59.70;;;-142.21;100.00;112049.66;5114170;28;20450;-74
2021/12/24 03:45:27;;;;;;;5.07;4.57;;;12.90;59.80;;;-142.21;100.00;112049.66;5114308;28;20467;-75
2021/12/24 03:47:59;;;;;;;5.33;4.57;;;12.90;59.70;;;-142.21;100.00;112049.66;5108370;28;20530;-75
2021/12/24 03:50:42;;;;;;;4.70;4.30;;;12.90;60.00;;;-142.21;100.00;112049.66;5113306;28;20548;-76
2021/12/24 03:56:01;;;;;;;5.43;4.43;;;12.80;60.70;;;-142.21;100.00;112049.66;5115803;28;20947;-75
2021/12/24 03:58:28;;;;;;;5.60;5.00;;;12.80;60.70;;;-142.21;100.00;112049.66;5113886;28;20454;-75
2021/12/24 04:00:56;;;;;;;5.50;4.80;;;12.70;60.90;;;-142.21;100.00;112049.66;5114969;28;20836;-75
2021/12/24 04:03:24;;;;;;;5.33;4.43;;;12.70;61.30;;;-142.21;100.00;112049.66;5099582;28;20492;-75
2021/12/24 04:05:52;;;;;;;5.93;5.30;;;12.70;62.00;;;-142.21;100.00;112049.66;5114170;28;20469;-76
2021/12/24 04:08:23;;;;;;;4.70;4.30;;;12.70;62.10;;;-142.21;100.00;112049.66;5114227;28;20460;-75
2021/12/24 04:10:51;;;;;;;5.63;4.93;;;12.70;62.30;;;-142.21;100.00;112049.66;5104558;28;20471;-74
2021/12/24 04:13:22;;;;;;;5.37;4.60;;;12.70;62.70;;;-142.21;100.00;112049.66;5114420;28;20461;-74
2021/12/24 04:15:50;;;;;;;5.20;4.40;;;12.60;62.90;;;-142.21;100.00;112049.66;5103200;28;20527;-74
2021/12/24 04:18:23;;;;;;;6.27;5.13;;;12.50;63.00;;;-142.21;100.00;112049.66;5111631;28;20558;-74
2021/12/24 04:26:23;;;;;;;5.20;4.40;;;12.70;63.40;;;-142.21;100.00;112049.66;5114878;27;20526;-75
2021/12/24 04:28:51;;;;;;;5.93;4.90;;;12.70;63.40;;;-142.21;100.00;112049.66;5113294;28;20473;-76
2021/12/24 04:31:26;;;;;;;4.67;4.17;;;12.70;63.20;;;-142.21;100.00;112049.66;5113725;28;20532;-74
2021/12/24 04:33:58;;;;;;;6.67;4.77;;;12.70;63.00;;;-142.21;100.00;112049.66;5112460;28;20469;-75
2021/12/24 04:36:50;;;;;;;5.53;4.43;;;12.70;62.90;;;-142.21;100.00;112049.66;5112707;28;21072;-76
2021/12/24 04:39:42;;;;;;;4.93;4.40;;;12.70;63.00;;;-142.21;100.00;112049.66;5113729;28;20434;-76
2021/12/24 05:01:48;;;;;;;4.50;4.10;;;12.60;62.70;;;-142.21;100.00;112049.66;5113200;28;20497;-78
2021/12/24 05:04:16;;;;;;;5.20;4.70;;;12.60;62.50;;;-142.21;100.00;112049.66;5113215;28;20452;-78
2021/12/24 05:06:51;;;;;;;4.83;4.10;;;12.60;62.50;;;-142.21;100.00;112049.66;5113868;28;20444;-78
2021/12/24 05:09:23;;;;;;;5.80;4.30;;;12.60;62.40;;;-142.21;100.00;112049.66;5093731;28;20438;-77
2021/12/24 05:11:52;;;;;;;4.70;4.10;;;12.60;62.40;;;-142.21;100.00;112049.66;5092140;28;20455;-78
2021/12/24 05:14:19;;;;;;;5.07;4.53;;;12.70;62.50;;;-142.21;100.00;112049.66;5113243;28;20944;-77
2021/12/24 05:16:49;;;;;;;5.20;4.17;;;12.70;63.00;;;-142.21;100.00;112049.66;5113568;28;20521;-77
2021/12/24 05:22:02;;;;;;;4.90;4.40;;;12.70;62.10;;;-142.21;100.00;112049.66;5112868;28;20890;-78
2021/12/24 05:24:30;;;;;;;5.10;4.60;;;12.70;62.10;;;-142.21;100.00;112049.66;5113561;28;20521;-78
2021/12/24 05:27:02;;;;;;;5.03;4.33;;;12.80;62.20;;;-142.21;100.00;112049.66;5113060;28;20448;-77
2021/12/24 05:29:30;;;;;;;4.97;4.40;;;12.70;62.20;;;-142.21;100.00;112049.66;5113675;28;20430;-77
2021/12/24 05:31:57;;;;;;;5.00;4.50;;;12.70;62.20;;;-142.21;100.00;112049.66;5113285;28;20529;-78
2021/12/24 05:34:25;;;;;;;5.43;4.73;;;12.70;62.10;;;-142.21;100.00;112049.66;5112425;28;20478;-78
2021/12/24 05:36:52;;;;;;;6.10;4.47;;;12.70;62.30;;;-142.21;100.00;112049.66;5113242;28;20552;-78
2021/12/24 05:39:22;;;;;;;5.40;4.80;;;12.70;62.10;;;-142.21;100.00;112049.66;5112674;28;20532;-79
2021/12/24 05:41:50;;;;;;;6.60;4.37;;;12.70;62.20;;;-142.21;100.00;112049.66;5093117;28;20887;-78
2021/12/24 05:44:18;;;;;;;5.07;4.40;;;12.70;62.30;;;-142.21;100.00;112049.66;5107167;28;20492;-78
2021/12/24 05:46:47;;;;;;;4.87;4.47;;;12.60;62.30;;;-142.21;100.00;112049.66;5112917;28;20492;-78
2021/12/24 05:49:15;;;;;;;5.10;4.20;;;12.60;62.60;;;-142.21;100.00;112049.66;5095878;28;20541;-78
2021/12/24 05:51:43;;;;;;;5.93;4.73;;;12.60;62.50;;;-142.21;100.00;112049.66;5092299;28;20450;-79
2021/12/24 05:54:10;;;;;;;4.83;4.33;;;12.70;62.50;;;-142.21;100.00;112049.66;5105820;28;20481;-78
2021/12/24 05:56:39;;;;;;;5.30;4.40;;;12.70;62.50;;;-142.21;100.00;112049.66;5112018;28;20528;-78
2021/12/24 05:59:07;;;;;;;5.50;4.70;;;12.70;62.50;;;-142.21;100.00;112049.66;5113029;28;20480;-78
2021/12/24 06:01:36;;;;;;;5.50;4.57;;;12.70;62.30;;;-142.21;100.00;112049.66;5112151;28;20948;-78
2021/12/24 06:04:03;;;;;;;4.20;3.80;;;12.80;62.30;;;-142.21;100.00;112049.66;5112870;28;20445;-78
2021/12/24 06:06:31;;;;;;;5.30;4.70;;;12.70;62.20;;;-142.21;100.00;112049.66;5112245;28;20972;-78
2021/12/24 06:08:58;;;;;;;5.77;4.57;;;12.70;62.60;;;-142.21;100.00;112049.66;5113178;28;20551;-78
2021/12/24 06:11:26;;;;;;;5.17;4.37;;;12.70;63.40;;;-142.21;100.00;112049.66;5112558;28;20446;-78
2021/12/24 06:13:56;;;;;;;5.40;4.57;;;12.70;62.80;;;-142.21;100.00;112049.66;5112123;28;20930;-78
2021/12/24 06:16:24;;;;;;;4.37;4.07;;;12.60;62.80;;;-142.21;100.00;112049.66;5112673;28;20819;-78
2021/12/24 06:18:54;;;;;;;4.43;4.03;;;12.70;62.80;;;-142.21;100.00;112049.66;5111947;28;20914;-77
2021/12/24 06:21:21;;;;;;;5.00;4.50;;;12.70;62.60;;;-142.21;100.00;112049.66;5110280;28;20475;-80
2021/12/24 06:23:49;;;;;;;5.00;4.50;;;12.70;62.70;;;-142.21;100.00;112049.66;5112026;28;20517;-78
2021/12/24 06:26:16;;;;;;;6.90;4.30;;;12.70;62.70;;;-142.21;100.00;112049.66;5112879;28;20446;-77
2021/12/24 06:28:43;;;;;;;4.87;4.00;;;12.70;62.90;;;-142.21;100.00;112049.66;5112615;28;20442;-77
2021/12/24 06:31:11;;;;;;;5.27;4.40;;;12.70;62.90;;;-142.21;100.00;112049.66;5112224;28;20536;-77
2021/12/24 06:33:38;;;;;;;6.17;4.60;;;12.70;62.90;;;-142.21;100.00;112049.66;5112215;28;20472;-78
2021/12/24 06:36:07;;;;;;;4.90;4.40;;;12.70;62.90;;;-142.21;100.00;112049.66;5111853;28;20949;-78
2021/12/24 06:38:35;;;;;;;5.50;4.60;;;12.70;63.00;;;-142.21;100.00;112049.66;5112368;28;20611;-77
2021/12/24 06:41:02;;;;;;;5.43;4.50;;;12.60;63.00;;;-142.21;100.00;112049.66;5112201;28;20469;-78
2021/12/24 06:43:33;;;;;;;5.63;4.50;;;12.70;63.20;;;-142.21;100.00;112049.66;5112788;28;20838;-78
2021/12/24 06:46:00;;;;;;;5.53;4.53;;;12.70;63.00;;;-142.21;100.00;112049.66;5112462;28;20485;-78
2021/12/24 06:48:27;;;;;;;5.17;3.97;;;12.70;63.00;;;-142.21;100.00;112049.66;5112486;28;20468;-76
2021/12/24 06:50:55;;;;;;;5.03;4.43;;;12.70;63.00;;;-142.21;100.00;112049.66;5112646;28;20451;-78
2021/12/24 06:53:23;;;;;;;4.67;4.27;;;12.70;63.10;;;-142.21;100.00;112049.66;5112133;28;20446;-77
2021/12/24 06:55:50;;;;;;;4.77;4.27;;;12.80;63.00;;;-142.21;100.00;112049.66;5112935;28;20786;-78
2021/12/24 06:58:18;;;;;;;5.03;4.13;;;12.80;63.10;;;-142.21;100.00;112049.66;5111866;28;20671;-77
2021/12/24 07:00:45;;;;;;;5.37;4.40;;;12.80;63.00;;;-142.21;100.00;112049.66;5111935;28;20478;-77
2021/12/24 07:03:12;;;;;;;5.53;4.10;;;12.90;63.00;;;-142.21;100.00;112049.66;5111571;28;20498;-77
2021/12/24 07:05:40;;;;;;;4.80;4.30;;;12.90;63.00;;;-142.21;100.00;112049.66;5111944;28;20476;-77
2021/12/24 07:08:07;;;;;;;4.60;4.20;;;12.80;63.20;;;-142.21;100.00;112049.66;5115868;28;20530;-77
2021/12/24 07:10:36;;;;;;;5.50;4.03;;;12.80;63.30;;;-142.21;100.00;112049.66;5115867;28;20518;-77
2021/12/24 07:13:03;;;;;;;4.83;4.43;;;12.90;63.20;;;-142.21;100.00;112049.66;5114188;28;20513;-77
2021/12/24 07:15:31;;;;;;;4.70;4.27;;;12.90;63.00;;;-142.21;100.00;112049.66;5115162;28;20555;-77
2021/12/24 07:18:00;;;;;;;4.37;3.97;;;12.90;62.90;;;-142.21;100.00;112049.66;5115847;28;20933;-78
2021/12/24 07:20:28;;;;;;;4.60;4.20;;;12.90;62.90;;;-142.21;100.00;112049.66;5115262;28;20496;-78
2021/12/24 07:22:55;;;;;;;5.23;4.27;;;12.90;63.10;;;-142.21;100.00;112049.66;5109416;28;20477;-77
2021/12/24 07:25:22;;;;;;;6.20;4.57;;;12.90;63.10;;;-142.21;100.00;112049.66;5115630;28;20488;-78
2021/12/24 07:27:51;;;;;;;4.87;4.30;;;12.90;63.10;;;-142.21;100.00;112049.66;5101117;28;20466;-77
2021/12/24 07:30:20;;;;;;;5.17;4.20;;;12.90;63.00;;;-142.21;100.00;112049.66;5095680;28;20852;-77
2021/12/24 07:32:47;;;;;;;4.97;4.20;;;12.80;63.00;;;-142.21;100.00;112049.66;5094856;28;20860;-76
2021/12/24 07:35:14;;;;;;;4.10;3.80;;;12.90;63.10;;;-142.21;100.00;112049.66;5110971;28;20513;-76
2021/12/24 07:37:42;;;;;;;4.47;4.03;;;12.90;63.90;;;-142.21;100.00;112049.66;5114981;28;20568;-77
2021/12/24 07:40:15;;;;;;;6.60;4.30;;;12.90;62.90;;;-142.21;100.00;112049.66;5115248;28;20536;-76
2021/12/24 07:42:42;;;;;;;4.97;4.47;;;12.90;63.20;;;-142.21;100.00;112049.66;5114727;28;20524;-79
2021/12/24 07:45:12;;;;;;;5.10;4.63;;;12.80;63.30;;;-142.21;100.00;112049.66;5115431;27;20492;-77
2021/12/24 07:47:43;;;;;;;4.57;3.90;;;12.90;63.30;;;-142.21;100.00;112049.66;5114713;27;20541;-77
2021/12/24 07:51:56;;;;;;;4.50;4.00;;;12.90;63.30;;;-142.21;100.00;112049.66;5123484;27;20495;-77
2021/12/24 07:53:07;;;;;;;6.33;4.30;;;12.90;63.20;;;-142.21;100.00;112049.66;5114592;27;20445;-77
2021/12/24 07:55:36;;;;;;;6.60;4.77;;;12.90;63.20;;;-142.21;100.00;112049.66;5115340;28;21010;-77
2021/12/24 07:58:04;;;;;;;5.13;4.50;;;12.90;63.20;;;-142.21;100.00;112049.66;5114354;28;20481;-77
2021/12/24 08:00:34;;;;;;;5.00;4.50;;;12.90;63.30;;;-142.21;100.00;112049.66;5115401;28;20485;-76
2021/12/24 08:03:02;;;;;;;5.17;4.33;;;12.90;63.40;;;-142.21;100.00;112049.66;5114173;28;20540;-77
2021/12/24 08:05:34;;;;;;;5.03;4.23;;;12.90;63.20;;;-142.21;100.00;112049.66;5101375;28;20525;-76
2021/12/24 08:08:02;;;;;;;5.60;4.00;;;12.80;63.30;;;-142.21;100.00;112049.66;5114802;28;20496;-77
2021/12/24 08:10:31;;;;;;;5.17;4.23;;;12.90;63.50;;;-142.21;100.00;112049.66;5094883;28;20471;-76
2021/12/24 08:12:59;;;;;;;4.73;4.20;;;12.80;63.40;;;-142.21;100.00;112049.66;5107030;28;20466;-76
2021/12/24 08:15:26;;;;;;;5.20;4.27;;;12.90;63.40;;;-142.21;100.00;112049.66;5114702;28;20549;-77
2021/12/24 08:17:55;;;;;;;5.50;4.87;;;12.90;63.50;;;-142.21;100.00;112049.66;5113727;28;20550;-78
2021/12/24 08:20:23;;;;;;;6.10;4.13;;;12.90;63.60;;;-142.21;100.00;112049.66;5114214;28;21422;-76
2021/12/24 08:22:52;;;;;;;4.67;4.27;;;12.90;63.50;;;-142.21;100.00;112049.66;5111307;28;20981;-76
2021/12/24 08:25:21;;;;;;;5.23;4.73;;;12.90;63.70;;;-142.21;100.00;112049.66;5113971;28;20450;-78
2021/12/24 08:27:49;;;;;;;7.40;4.43;;;12.90;63.80;;;-142.21;100.00;112049.66;5113923;28;21083;-76
2021/12/24 08:30:17;;;;;;;4.97;3.90;;;12.90;64.00;;;-142.21;100.00;112049.66;5113758;28;20853;-76
2021/12/24 08:32:44;;;;;;;5.30;4.50;;;12.90;64.00;;;-142.21;100.00;112049.66;5113895;28;20462;-77
2021/12/24 08:35:16;;;;;;;5.37;4.87;;;13.00;64.10;;;-142.21;100.00;112049.66;5114030;28;20568;-79
2021/12/24 08:37:45;;;;;;;4.87;4.33;;;13.00;64.10;;;-142.21;100.00;112049.66;5113927;28;20501;-78
2021/12/24 08:40:13;;;;;;;6.60;4.20;;;13.00;64.10;;;-142.21;100.00;112049.66;5113900;28;20497;-80
2021/12/24 08:42:41;;;;;;;7.43;5.17;;;13.00;64.00;;;-142.21;100.00;112049.66;5113144;28;20529;-80
2021/12/24 08:45:10;;;;;;;5.07;4.57;;;13.00;63.90;;;-142.21;100.00;112049.66;5114132;28;20536;-79
2021/12/24 08:47:38;;;;;;;5.27;4.77;;;13.00;64.00;;;-142.21;100.00;112049.66;5112095;28;20453;-80
2021/12/24 08:50:08;;;;;;;5.70;5.20;;;13.00;64.00;;;-142.21;100.00;112049.66;5114221;27;20477;-79
2021/12/24 08:52:38;;;;;;;5.70;4.23;;;12.90;64.40;;;-142.21;100.00;112049.66;5113112;28;20537;-79
2021/12/24 08:55:06;;;;;;;5.27;4.70;;;12.90;64.20;;;-142.21;100.00;112049.66;5113648;28;20442;-79
2021/12/24 08:57:34;;;;;;;4.80;4.37;;;12.90;64.60;;;-142.21;100.00;112049.66;5112228;28;20470;-79
2021/12/24 09:00:01;;;;;;;5.70;4.77;;;12.90;64.50;;;-142.21;100.00;112049.66;5113931;28;20532;-80
2021/12/24 09:02:29;;;;;;;6.07;4.27;;;12.90;64.50;;;-142.21;100.00;112049.66;5113570;28;20454;-79
2021/12/24 09:04:56;;;;;;;5.03;4.53;;;12.90;65.00;;;-142.21;100.00;112049.66;5112752;27;20446;-79
2021/12/24 09:07:23;;;;;;;5.20;4.50;;;12.90;65.60;;;-142.21;100.00;112049.66;5113588;28;20473;-79
2021/12/24 09:09:52;;;;;;;5.43;4.87;;;12.80;66.40;;;-142.21;100.00;112049.66;5112522;28;20507;-79
2021/12/24 09:12:20;;;;;;;4.73;4.27;;;12.80;67.00;;;-142.21;100.00;112049.66;5113558;28;20453;-78
2021/12/24 09:14:47;;;;;;;5.43;4.53;;;12.80;67.30;;;-142.21;100.00;112049.66;5113344;28;20863;-79
2021/12/24 09:17:14;;;;;;;5.77;4.87;;;12.80;67.30;;;-142.21;100.00;112049.66;5113495;28;20477;-79
2021/12/24 09:19:46;;;;;;;5.97;4.77;;;12.80;67.70;;;-142.21;100.00;112049.66;5113326;28;20481;-80
2021/12/24 09:22:16;;;;;;;6.23;4.93;;;12.80;67.90;;;-142.21;100.00;112049.66;5113730;28;20456;-79
2021/12/24 09:24:46;;;;;;;5.30;4.67;;;12.70;68.30;;;-142.21;100.00;112049.66;5111732;28;20442;-79
2021/12/24 09:27:14;;;;;;;7.20;4.93;;;12.70;69.00;;;-142.21;100.00;112049.66;5113781;28;20449;-79
2021/12/24 09:29:42;;;;;;;6.17;4.93;;;12.70;69.70;;;-142.21;100.00;112049.66;5112600;28;20926;-79
2021/12/24 09:32:10;;;;;;;5.13;4.63;;;12.60;69.50;;;-142.21;100.00;112049.66;5112784;28;20457;-78
2021/12/24 09:34:38;;;;;;;5.27;4.70;;;12.60;70.30;;;-142.21;100.00;112049.66;5112789;28;20560;-77
2021/12/24 09:37:06;;;;;;;6.60;5.00;;;12.50;70.50;;;-142.21;100.00;112049.66;5103117;28;20541;-78
2021/12/24 09:39:34;;;;;;;5.77;5.17;;;12.50;71.00;;;-142.21;100.00;112049.66;5112568;28;20520;-79
2021/12/24 09:42:03;;;;;;;6.50;5.63;;;12.50;71.60;;;-142.21;100.00;112049.66;5112451;28;20516;-79
2021/12/24 09:44:32;;;;;;;5.23;4.73;;;12.50;71.70;;;-142.21;100.00;112049.66;5112928;28;20536;-79
2021/12/24 09:46:59;;;;;;;6.47;5.27;;;12.50;71.90;;;-142.21;100.00;112049.66;5112842;28;20528;-79
2021/12/24 09:49:26;;;;;;;5.60;5.00;;;12.40;72.50;;;-142.21;100.00;112049.66;5111865;28;20521;-79
2021/12/24 09:51:54;;;;;;;5.87;5.37;;;12.40;72.70;;;-142.21;100.00;112049.66;5113037;28;20449;-76
2021/12/24 09:54:27;;;;;;;6.53;5.77;;;12.30;73.40;;;-142.21;100.00;112049.66;5106782;28;20490;-77
2021/12/24 09:56:56;;;;;;;6.60;5.60;;;12.30;73.80;;;-142.21;100.00;112049.66;5113049;28;20434;-78
2021/12/24 09:59:27;;;;;;;6.37;5.40;;;12.30;73.90;;;-142.21;100.00;112049.66;5112582;28;20481;-79
2021/12/24 10:02:00;;;;;;;6.70;5.83;;;12.40;73.80;;;-142.21;100.00;112049.66;5092275;28;20427;-79
2021/12/24 10:04:31;;;;;;;7.23;5.53;;;12.40;74.40;;;-142.21;100.00;112049.66;5107250;28;20450;-79
2021/12/24 10:07:03;;;;;;;6.90;5.90;;;12.30;74.80;;;-142.21;100.00;112049.66;5112569;28;20442;-78
2021/12/24 10:09:33;;;;;;;7.03;5.40;;;12.30;74.80;;;-142.21;100.00;112049.66;5111930;28;20897;-79
2021/12/24 10:12:04;;;;;;;5.87;5.27;;;12.30;75.50;;;-142.21;100.00;112049.66;5112837;28;20473;-78
2021/12/24 10:14:34;;;;;;;6.00;5.40;;;12.30;75.50;;;-142.21;100.00;112049.66;5112116;28;20500;-79
2021/12/24 10:17:05;;;;;;;6.07;5.47;;;12.30;75.30;;;-142.21;100.00;112049.66;5112494;28;20530;-79
2021/12/24 10:19:45;;;;;;;7.80;5.80;;;12.30;75.50;;;-142.21;100.00;112049.66;5112331;28;20470;-79
2021/12/24 10:22:12;;;;;;;6.93;6.20;;;12.30;76.40;;;-142.21;100.00;112049.66;5112057;28;20437;-79
2021/12/24 10:24:40;;;;;;;8.53;5.43;;;12.30;75.70;;;-142.21;100.00;112049.66;5112152;28;20452;-79
2021/12/24 10:27:07;;;;;;;7.60;5.77;;;12.30;75.90;;;-142.21;100.00;112049.66;5112703;28;20449;-77
2021/12/24 10:29:38;;;;;;;5.93;5.33;;;12.30;75.80;;;-142.21;100.00;112049.66;5112171;28;20853;-78
2021/12/24 10:32:14;;;;;;;6.80;6.13;;;12.30;75.90;;;-142.21;100.00;112049.66;5112751;28;20441;-79
2021/12/24 10:34:44;;;;;;;8.20;5.90;;;12.40;76.30;;;-142.21;100.00;112049.66;5091584;28;20477;-77
2021/12/24 10:37:22;;;;;;;5.60;5.03;;;12.30;76.10;;;-142.21;100.00;112049.66;5110348;28;20442;-80
2021/12/24 10:39:53;;;;;;;6.33;5.73;;;12.30;76.50;;;-142.21;100.00;112049.66;5112054;28;20583;-80
2021/12/24 10:42:27;;;;;;;6.97;6.10;;;12.30;76.50;;;-142.21;100.00;112049.66;5114895;28;20512;-76
2021/12/24 10:44:58;;;;;;;7.10;6.10;;;12.30;76.90;;;-142.21;100.00;112049.66;5116287;28;20547;-77
2021/12/24 10:47:31;;;;;;;6.40;5.63;;;12.30;76.70;;;-142.21;100.00;112049.66;5117065;28;20433;-79
2021/12/24 10:50:12;;;;;;;8.90;6.00;;;12.30;77.20;;;-142.21;100.00;112049.66;5116062;28;20433;-78
2021/12/24 10:55:38;;;;;;;6.43;5.70;;;12.30;78.30;;;-142.21;100.00;112049.66;5116678;28;20937;-79
2021/12/24 10:58:13;;;;;;;6.63;6.00;;;12.30;78.40;;;-142.21;100.00;112049.66;5115028;28;20480;-79
2021/12/24 11:00:46;;;;;;;6.17;5.57;;;12.30;78.90;;;-142.21;100.00;112049.66;5116451;28;20451;-79
2021/12/24 11:03:20;;;;;;;6.23;5.37;;;12.30;78.90;;;-142.21;100.00;112049.66;5115983;28;20429;-80
2021/12/24 11:05:51;;;;;;;6.23;5.63;;;12.20;78.60;;;-142.21;100.00;112049.66;5115971;28;20429;-79
2021/12/24 11:08:22;;;;;;;6.23;5.30;;;12.20;79.10;;;-142.21;100.00;112049.66;5115722;28;20433;-79
2021/12/24 11:10:54;;;;;;;9.13;5.50;;;12.20;79.30;;;-142.21;100.00;112049.66;5107896;28;20532;-79
2021/12/24 11:13:28;;;;;;;6.63;6.00;;;12.20;79.20;;;-142.21;100.00;112049.66;5115427;28;20430;-79
2021/12/24 11:15:59;;;;;;;6.83;6.13;;;12.20;79.60;;;-142.21;100.00;112049.66;5093484;28;20446;-78
2021/12/24 11:18:30;;;;;;;6.40;5.80;;;12.20;79.80;;;-142.21;100.00;112049.66;5100779;28;20470;-78